Time;durP1;ratioP1;P1;durP2;ratioP2;P2;SDS_P1;SDS_P2;PMS_P1;PMS_P2;Temp;Humidity;BMP_temperature;BMP_pressure;BME280_temperature;BME280_humidity;BME280_pressure;Samples;Min_cycle;Max_cycle;Signal;HPM_P1;HPM_P2
2022/11/23 00:01:21;;;;;;;6.70;2.40;;;12.00;54.90;;;;;;5044476;28;20493;-58
2022/11/23 00:03:50;;;;;;;4.00;1.83;;;12.10;54.80;;;;;;5047183;28;20892;-57
2022/11/23 00:06:17;;;;;;;2.77;1.73;;;12.10;54.90;;;;;;5045906;28;20431;-57
2022/11/23 00:08:43;;;;;;;5.27;2.60;;;12.10;54.90;;;;;;5047074;28;20492;-57
2022/11/23 00:11:10;;;;;;;3.17;1.67;;;11.80;54.90;;;;;;5049602;28;20450;-59
2022/11/23 00:13:38;;;;;;;3.23;1.83;;;11.90;55.20;;;;;;5036901;28;20454;-59
2022/11/23 00:16:10;;;;;;;4.23;2.03;;;12.00;54.90;;;;;;5033662;28;21100;-58
2022/11/23 00:18:36;;;;;;;5.43;2.00;;;12.10;54.70;;;;;;5047888;28;20911;-57
2022/11/23 00:21:09;;;;;;;2.87;2.40;;;12.10;54.60;;;;;;5046636;28;20483;-58
2022/11/23 00:23:36;;;;;;;5.67;1.83;;;12.10;54.50;;;;;;5049244;28;20204;-57
2022/11/23 00:26:02;;;;;;;4.67;2.00;;;12.10;54.50;;;;;;5048366;28;20604;-58
2022/11/23 00:28:27;;;;;;;14.97;2.13;;;12.10;54.70;;;;;;5044739;28;20438;-58
2022/11/23 00:30:53;;;;;;;2.67;1.93;;;12.00;54.70;;;;;;5035822;28;20548;-58
2022/11/23 00:33:18;;;;;;;4.10;2.27;;;12.10;54.50;;;;;;5038651;28;20211;-57
2022/11/23 00:35:44;;;;;;;3.93;1.93;;;12.10;54.30;;;;;;5040621;28;20200;-57
2022/11/23 00:38:10;;;;;;;4.90;2.30;;;12.10;54.20;;;;;;5035999;28;20204;-58
2022/11/23 00:40:36;;;;;;;6.10;2.37;;;12.10;54.20;;;;;;5043567;28;20330;-58
2022/11/23 00:43:02;;;;;;;5.33;2.30;;;12.10;54.10;;;;;;5045122;28;20962;-58
2022/11/23 00:45:27;;;;;;;4.13;2.30;;;11.80;54.30;;;;;;5040839;28;20245;-58
2022/11/23 00:47:53;;;;;;;5.40;2.27;;;11.80;54.50;;;;;;5035071;28;20648;-58
2022/11/23 00:50:18;;;;;;;4.40;2.30;;;11.80;54.70;;;;;;5033577;28;20573;-57
2022/11/23 00:52:44;;;;;;;3.80;1.87;;;11.80;54.70;;;;;;5036927;28;20250;-57
2022/11/23 00:55:09;;;;;;;2.57;1.83;;;11.70;54.80;;;;;;5041698;28;20267;-57
2022/11/23 00:57:35;;;;;;;3.57;1.90;;;11.70;55.10;;;;;;5040453;28;20323;-58
2022/11/23 01:00:00;;;;;;;2.57;2.00;;;11.80;55.20;;;;;;5045594;28;20295;-57
2022/11/23 01:02:26;;;;;;;1.87;1.53;;;11.80;55.70;;;;;;5044521;28;20200;-57
2022/11/23 01:04:52;;;;;;;3.77;1.80;;;11.80;55.20;;;;;;5047944;28;20234;-58
2022/11/23 01:07:17;;;;;;;6.47;2.90;;;11.70;55.10;;;;;;5044984;28;21886;-57
2022/11/23 01:09:43;;;;;;;7.63;2.00;;;11.80;55.40;;;;;;5024603;28;20196;-57
2022/11/23 01:12:09;;;;;;;2.07;1.63;;;11.40;55.50;;;;;;5046142;28;20235;-57
2022/11/23 01:14:34;;;;;;;1.73;1.63;;;11.20;56.50;;;;;;5048857;28;20296;-57
2022/11/23 01:17:00;;;;;;;2.60;1.73;;;10.90;56.90;;;;;;5055322;28;20189;-57
2022/11/23 01:19:25;;;;;;;4.27;1.57;;;11.00;57.10;;;;;;5054791;28;20671;-58
2022/11/23 01:21:51;;;;;;;3.00;1.90;;;11.10;56.90;;;;;;5052637;28;20224;-58
2022/11/23 01:24:19;;;;;;;4.07;2.30;;;10.90;57.20;;;;;;5051596;28;20195;-58
2022/11/23 01:26:52;;;;;;;3.47;1.97;;;10.90;57.50;;;;;;5050294;28;20200;-58
2022/11/23 01:29:18;;;;;;;2.07;1.50;;;11.00;57.50;;;;;;5048767;28;20466;-58
2022/11/23 01:31:43;;;;;;;4.07;1.67;;;11.00;57.50;;;;;;5052220;28;20485;-58
2022/11/23 01:34:11;;;;;;;2.83;2.03;;;10.70;57.90;;;;;;5051301;28;20625;-58
2022/11/23 01:36:37;;;;;;;5.03;2.53;;;10.50;58.50;;;;;;5055929;28;20196;-58
2022/11/23 01:39:03;;;;;;;5.60;2.30;;;10.30;59.10;;;;;;5051881;28;20530;-58
2022/11/23 01:41:35;;;;;;;3.67;1.90;;;10.30;59.20;;;;;;5050336;28;20916;-58
2022/11/23 01:44:24;;;;;;;4.70;1.93;;;10.20;59.40;;;;;;5055831;28;20546;-58
2022/11/23 01:46:50;;;;;;;3.30;2.27;;;10.20;59.70;;;;;;5058512;28;21024;-58
2022/11/23 01:49:17;;;;;;;2.53;1.60;;;10.40;59.20;;;;;;5051132;28;20481;-58
2022/11/23 01:51:47;;;;;;;5.40;1.80;;;10.40;59.00;;;;;;5049882;28;20204;-58
2022/11/23 01:54:21;;;;;;;2.60;1.77;;;10.40;59.10;;;;;;5053311;28;20509;-58
2022/11/23 01:56:53;;;;;;;3.17;2.07;;;10.60;59.00;;;;;;5054820;28;21090;-58
2022/11/23 01:59:20;;;;;;;4.43;2.10;;;10.80;58.40;;;;;;5050910;28;20804;-58
2022/11/23 02:01:46;;;;;;;1.83;1.30;;;11.00;57.90;;;;;;5045739;28;21004;-58
2022/11/23 02:04:21;;;;;;;3.00;1.37;;;10.80;58.20;;;;;;5050282;28;20581;-58
2022/11/23 02:06:47;;;;;;;3.63;1.60;;;10.80;58.10;;;;;;5048385;28;20438;-58
2022/11/23 02:09:15;;;;;;;5.43;1.70;;;11.00;57.80;;;;;;5049678;28;20493;-58
2022/11/23 02:11:40;;;;;;;4.80;1.70;;;11.20;57.50;;;;;;5052163;28;20428;-58
2022/11/23 02:14:06;;;;;;;3.10;1.63;;;11.10;57.10;;;;;;5051181;28;20466;-58
2022/11/23 02:16:32;;;;;;;2.80;1.93;;;11.00;57.60;;;;;;5050760;28;20207;-58
2022/11/23 02:18:58;;;;;;;3.00;2.03;;;11.00;57.90;;;;;;5049845;28;20196;-58
2022/11/23 02:21:24;;;;;;;2.60;1.70;;;11.10;57.50;;;;;;5050583;28;20516;-58
2022/11/23 02:24:39;;;;;;;5.03;2.03;;;11.20;57.20;;;;;;5050635;28;20447;-58
2022/11/23 02:27:06;;;;;;;6.63;1.90;;;11.20;56.90;;;;;;5041207;28;20209;-58
2022/11/23 02:29:33;;;;;;;4.53;1.70;;;11.30;56.90;;;;;;5040472;28;20476;-58
2022/11/23 02:31:59;;;;;;;2.90;2.00;;;11.10;56.80;;;;;;5043806;28;20455;-58
2022/11/23 02:34:24;;;;;;;2.63;1.73;;;10.90;57.20;;;;;;5048966;28;20446;-58
2022/11/23 02:36:55;;;;;;;2.27;1.60;;;11.10;57.20;;;;;;5053693;28;20259;-58
2022/11/23 02:39:31;;;;;;;2.30;1.87;;;11.10;57.10;;;;;;5048320;28;20218;-58
2022/11/23 02:41:58;;;;;;;8.23;2.47;;;10.90;56.90;;;;;;5050855;28;20486;-58
2022/11/23 02:44:47;;;;;;;8.37;2.40;;;10.70;57.30;;;;;;5051749;28;20431;-58
2022/11/23 02:47:13;;;;;;;2.20;2.00;;;10.40;58.10;;;;;;5053055;28;20454;-58
2022/11/23 02:49:44;;;;;;;3.63;2.17;;;10.10;59.00;;;;;;5053294;28;20438;-58
2022/11/23 02:52:11;;;;;;;3.93;2.13;;;10.40;58.90;;;;;;5055050;28;20442;-58
2022/11/23 02:54:36;;;;;;;4.27;2.43;;;10.40;58.50;;;;;;5046924;28;20445;-58
2022/11/23 02:57:02;;;;;;;2.57;2.30;;;10.60;58.10;;;;;;5051571;28;20478;-58
2022/11/23 02:59:31;;;;;;;2.90;2.03;;;10.40;58.10;;;;;;5051782;28;20565;-58
2022/11/23 03:02:00;;;;;;;5.20;2.23;;;10.30;58.60;;;;;;5044263;28;20226;-58
2022/11/23 03:04:26;;;;;;;4.93;1.93;;;10.40;58.30;;;;;;5046102;28;20447;-58
2022/11/23 03:06:52;;;;;;;2.07;1.87;;;10.30;58.30;;;;;;5048257;28;20454;-58
2022/11/23 03:09:17;;;;;;;2.50;2.10;;;10.10;58.70;;;;;;5051682;28;20191;-59
2022/11/23 03:11:43;;;;;;;2.80;2.10;;;10.20;58.70;;;;;;5049880;28;20193;-59
2022/11/23 03:14:09;;;;;;;4.83;2.90;;;10.40;58.30;;;;;;5051012;28;20561;-57
2022/11/23 03:16:34;;;;;;;3.87;2.10;;;10.60;58.00;;;;;;5052317;28;20278;-57
2022/11/23 03:19:00;;;;;;;3.47;2.30;;;10.70;57.50;;;;;;5048588;28;20446;-57
2022/11/23 03:21:26;;;;;;;3.93;2.30;;;10.80;57.30;;;;;;5049667;28;20228;-57
2022/11/23 03:23:51;;;;;;;12.17;2.30;;;10.80;57.10;;;;;;5047821;28;20327;-57
2022/11/23 03:26:17;;;;;;;3.93;1.87;;;10.90;56.90;;;;;;5051332;28;20193;-57
2022/11/23 03:28:43;;;;;;;2.30;2.07;;;10.90;56.70;;;;;;5051140;28;20196;-57
2022/11/23 03:31:08;;;;;;;3.07;2.00;;;10.90;56.60;;;;;;5051368;28;20203;-57
2022/11/23 03:33:34;;;;;;;3.63;1.80;;;10.90;56.30;;;;;;5051900;28;20189;-57
2022/11/23 03:36:00;;;;;;;4.63;2.47;;;11.00;56.30;;;;;;5051294;28;20201;-57
2022/11/23 03:38:26;;;;;;;4.73;2.27;;;10.90;56.30;;;;;;5050856;28;20677;-57
2022/11/23 03:40:51;;;;;;;3.33;1.70;;;10.80;56.50;;;;;;5049362;28;20474;-57
2022/11/23 03:43:18;;;;;;;2.43;2.10;;;10.60;57.00;;;;;;5049625;28;20602;-57
2022/11/23 03:45:44;;;;;;;4.30;2.03;;;10.50;57.30;;;;;;5048723;28;20248;-57
2022/11/23 03:48:10;;;;;;;3.63;2.90;;;10.30;57.60;;;;;;5048495;28;20435;-57
2022/11/23 03:50:35;;;;;;;4.50;2.07;;;10.30;57.70;;;;;;5048019;28;20206;-57
2022/11/23 03:53:01;;;;;;;3.30;2.37;;;10.20;57.90;;;;;;5047544;28;20451;-57
2022/11/23 03:55:26;;;;;;;4.03;2.57;;;10.40;58.00;;;;;;5045751;28;20200;-57
2022/11/23 03:57:58;;;;;;;6.03;2.93;;;10.30;57.90;;;;;;5049778;28;20224;-57
2022/11/23 04:00:27;;;;;;;3.50;3.00;;;10.40;57.90;;;;;;5049298;28;20235;-56
2022/11/23 04:02:53;;;;;;;4.90;3.13;;;10.60;57.80;;;;;;5046908;28;20435;-57
2022/11/23 04:05:19;;;;;;;7.83;2.93;;;10.50;57.60;;;;;;5047680;28;20474;-57
2022/11/23 04:07:46;;;;;;;2.80;2.17;;;10.20;57.90;;;;;;5049859;28;20199;-57
2022/11/23 04:10:16;;;;;;;3.23;2.60;;;10.10;58.80;;;;;;5047349;28;20241;-57
2022/11/23 04:12:42;;;;;;;3.33;2.70;;;10.20;58.60;;;;;;5045895;28;20913;-57
2022/11/23 04:15:08;;;;;;;5.07;2.57;;;10.30;58.40;;;;;;5048762;28;20431;-57
2022/11/23 04:17:34;;;;;;;3.90;2.53;;;10.10;58.80;;;;;;5049199;28;20193;-57
2022/11/23 04:19:59;;;;;;;4.27;2.30;;;10.20;58.80;;;;;;5048542;28;20443;-57
2022/11/23 04:22:25;;;;;;;5.90;2.73;;;10.10;58.70;;;;;;5049693;28;20228;-57
2022/11/23 04:24:50;;;;;;;4.23;2.70;;;10.10;58.90;;;;;;5048071;28;20205;-57
2022/11/23 04:27:16;;;;;;;4.67;2.37;;;10.20;59.00;;;;;;5048378;28;20197;-57
2022/11/23 04:29:41;;;;;;;7.20;2.57;;;10.20;58.70;;;;;;5046988;28;20197;-57
2022/11/23 04:32:07;;;;;;;2.80;2.10;;;10.20;58.70;;;;;;5047492;28;20204;-57
2022/11/23 04:34:33;;;;;;;7.93;2.13;;;10.20;58.80;;;;;;5048296;28;20249;-57
2022/11/23 04:36:58;;;;;;;3.93;2.57;;;10.30;58.90;;;;;;5048324;28;20644;-57
2022/11/23 04:39:24;;;;;;;4.17;2.50;;;10.30;58.70;;;;;;5047626;28;20204;-57
2022/11/23 04:41:49;;;;;;;6.40;3.00;;;10.40;58.60;;;;;;5047359;28;20224;-57
2022/11/23 04:44:15;;;;;;;3.57;2.60;;;10.30;58.60;;;;;;5048268;28;20285;-57
2022/11/23 04:46:40;;;;;;;5.87;3.10;;;10.20;58.90;;;;;;5048739;28;20200;-59
2022/11/23 04:49:08;;;;;;;5.40;3.30;;;10.00;59.10;;;;;;5046518;28;20265;-57
2022/11/23 04:51:33;;;;;;;3.67;2.77;;;10.00;59.80;;;;;;5052269;28;21532;-57
2022/11/23 04:53:59;;;;;;;3.63;3.10;;;9.90;60.80;;;;;;5053253;28;20470;-57
2022/11/23 04:56:24;;;;;;;3.70;2.50;;;10.00;59.70;;;;;;5052317;28;20238;-57
2022/11/23 04:58:50;;;;;;;3.37;2.70;;;10.00;59.50;;;;;;5049223;28;20275;-57
2022/11/23 05:01:16;;;;;;;4.20;2.27;;;10.00;59.50;;;;;;5052623;28;20235;-57
2022/11/23 05:03:41;;;;;;;4.43;2.37;;;10.00;59.50;;;;;;5051749;28;20267;-57
2022/11/23 05:06:08;;;;;;;3.30;2.33;;;10.10;59.50;;;;;;5050997;28;20207;-57
2022/11/23 05:08:33;;;;;;;14.50;3.50;;;9.90;60.40;;;;;;5049379;28;20209;-58
2022/11/23 05:10:59;;;;;;;4.20;3.10;;;9.80;60.70;;;;;;5050264;28;20442;-58
2022/11/23 05:13:24;;;;;;;4.27;2.47;;;9.50;61.80;;;;;;5052582;28;20200;-58
2022/11/23 05:15:50;;;;;;;5.20;2.90;;;9.20;62.60;;;;;;5053085;28;20702;-58
2022/11/23 05:18:16;;;;;;;3.40;2.80;;;8.70;64.70;;;;;;5053178;28;20201;-58
2022/11/23 05:20:41;;;;;;;2.50;2.30;;;8.60;65.40;;;;;;5050632;28;20278;-58
2022/11/23 05:23:07;;;;;;;3.27;2.57;;;8.40;66.30;;;;;;5052326;28;20188;-59
2022/11/23 05:25:33;;;;;;;5.13;2.60;;;8.70;65.90;;;;;;5052486;28;20203;-58
2022/11/23 05:27:59;;;;;;;6.50;2.83;;;8.90;65.30;;;;;;5053007;28;20203;-58
2022/11/23 05:30:24;;;;;;;4.03;2.50;;;9.10;64.50;;;;;;5053505;28;20427;-58
2022/11/23 05:32:50;;;;;;;5.60;2.27;;;9.10;64.00;;;;;;5054658;28;20306;-58
2022/11/23 05:35:15;;;;;;;4.03;2.83;;;9.10;64.20;;;;;;5050497;28;20199;-58
2022/11/23 05:37:41;;;;;;;5.17;1.90;;;9.20;64.10;;;;;;5051544;28;20200;-58
2022/11/23 05:40:07;;;;;;;4.03;2.47;;;9.40;63.50;;;;;;5051011;28;20192;-58
2022/11/23 05:42:33;;;;;;;6.40;2.53;;;9.60;62.70;;;;;;5052233;28;20254;-58
2022/11/23 05:44:59;;;;;;;5.23;2.77;;;9.60;61.80;;;;;;5052299;28;20439;-58
2022/11/23 05:47:24;;;;;;;5.40;3.00;;;9.50;62.00;;;;;;5054461;28;20608;-58
2022/11/23 05:49:50;;;;;;;4.90;2.70;;;9.60;61.90;;;;;;5053056;28;20191;-58
2022/11/23 05:52:16;;;;;;;9.17;3.10;;;9.50;61.70;;;;;;5052211;28;20185;-58
2022/11/23 05:54:42;;;;;;;3.60;2.83;;;9.60;61.60;;;;;;5051045;28;20239;-58
2022/11/23 05:57:07;;;;;;;7.20;5.40;;;9.70;61.10;;;;;;5049767;28;20985;-58
2022/11/23 05:59:33;;;;;;;4.37;3.17;;;9.90;60.60;;;;;;5052496;28;20199;-58
2022/11/23 06:01:59;;;;;;;8.73;2.83;;;10.00;59.20;;;;;;5051305;28;20220;-58
2022/11/23 06:04:24;;;;;;;2.80;2.57;;;10.00;58.90;;;;;;5052901;28;20271;-57
2022/11/23 06:06:50;;;;;;;8.00;3.20;;;10.10;58.70;;;;;;5053192;28;20310;-58
2022/11/23 06:09:15;;;;;;;5.23;2.67;;;10.00;58.30;;;;;;5052420;28;20227;-58
2022/11/23 06:11:43;;;;;;;4.60;3.13;;;9.90;59.50;;;;;;5051194;28;20199;-58
2022/11/23 06:14:09;;;;;;;3.70;3.10;;;9.80;59.80;;;;;;5050098;28;20762;-58
2022/11/23 06:16:34;;;;;;;6.30;3.40;;;9.70;60.20;;;;;;5052394;28;20530;-58
2022/11/23 06:19:00;;;;;;;7.97;2.53;;;9.60;60.70;;;;;;5051512;28;20200;-58
2022/11/23 06:21:25;;;;;;;5.03;2.60;;;9.60;60.60;;;;;;5051677;28;20631;-59
2022/11/23 06:23:51;;;;;;;3.63;2.40;;;9.40;61.80;;;;;;5048136;28;20193;-59
2022/11/23 06:26:17;;;;;;;4.37;2.83;;;9.70;64.10;;;;;;5051508;28;20189;-59
2022/11/23 06:28:42;;;;;;;3.03;2.00;;;10.10;63.40;;;;;;5044345;28;20205;-59
2022/11/23 06:31:09;;;;;;;3.33;2.70;;;10.30;62.20;;;;;;5036521;28;20275;-59
2022/11/23 06:33:34;;;;;;;6.07;3.07;;;10.60;62.20;;;;;;5044170;28;20196;-59
2022/11/23 06:36:02;;;;;;;7.13;2.73;;;10.70;61.40;;;;;;5038136;28;20451;-59
2022/11/23 06:38:28;;;;;;;4.70;2.90;;;10.90;60.70;;;;;;5038705;28;20268;-59
2022/11/23 06:40:58;;;;;;;4.97;2.77;;;11.10;60.20;;;;;;5041335;28;20499;-60
2022/11/23 06:43:24;;;;;;;4.90;2.53;;;11.10;59.30;;;;;;5038256;28;21086;-59
2022/11/23 06:45:49;;;;;;;3.60;2.97;;;11.20;58.80;;;;;;5043562;28;20439;-59
2022/11/23 06:48:15;;;;;;;5.27;3.00;;;11.10;57.40;;;;;;5046535;28;20192;-59
2022/11/23 06:50:40;;;;;;;7.30;3.87;;;11.10;56.50;;;;;;5043645;28;20200;-59
2022/11/23 06:53:06;;;;;;;3.67;2.70;;;11.10;57.10;;;;;;5046282;28;20192;-59
2022/11/23 06:55:32;;;;;;;5.37;2.70;;;11.20;57.20;;;;;;5046229;28;20203;-59
2022/11/23 06:57:58;;;;;;;6.70;2.83;;;11.20;57.20;;;;;;5045651;28;20236;-59
2022/11/23 07:00:24;;;;;;;4.73;2.87;;;11.10;56.10;;;;;;5048942;28;20201;-59
2022/11/23 07:02:54;;;;;;;5.33;3.07;;;10.80;56.50;;;;;;5046188;28;20465;-59
2022/11/23 07:05:20;;;;;;;5.57;3.90;;;10.70;57.10;;;;;;5049826;28;20192;-59
2022/11/23 07:07:46;;;;;;;4.20;3.30;;;10.70;57.10;;;;;;5049692;28;20447;-59
2022/11/23 07:10:12;;;;;;;6.20;3.40;;;10.50;57.80;;;;;;5050633;28;20973;-59
2022/11/23 07:12:38;;;;;;;3.63;3.30;;;10.70;58.20;;;;;;5050020;28;20652;-59
2022/11/23 07:15:04;;;;;;;4.07;3.00;;;10.80;57.60;;;;;;5050151;28;20432;-59
2022/11/23 07:17:30;;;;;;;4.30;3.00;;;10.60;57.40;;;;;;5050301;28;20189;-59
2022/11/23 07:19:55;;;;;;;3.90;3.07;;;10.50;57.80;;;;;;5049973;28;20968;-59
2022/11/23 07:22:21;;;;;;;6.27;3.20;;;10.50;58.70;;;;;;5049658;28;20718;-59
2022/11/23 07:24:46;;;;;;;4.97;3.87;;;10.90;57.70;;;;;;5045925;28;20626;-59
2022/11/23 07:27:12;;;;;;;4.50;3.13;;;11.40;56.50;;;;;;5049919;28;20262;-59
2022/11/23 07:29:37;;;;;;;4.40;3.70;;;12.00;56.00;;;;;;5046462;28;20211;-59
2022/11/23 07:32:05;;;;;;;4.40;3.23;;;12.50;54.00;;;;;;5042140;28;20247;-59
2022/11/23 07:34:31;;;;;;;5.40;3.23;;;13.00;52.90;;;;;;5044452;28;20656;-59
2022/11/23 07:36:56;;;;;;;4.10;2.87;;;13.10;51.90;;;;;;5048288;28;20517;-60
2022/11/23 07:39:22;;;;;;;3.63;3.17;;;13.50;51.60;;;;;;5036220;28;20205;-61
2022/11/23 07:41:48;;;;;;;3.40;2.80;;;13.90;51.10;;;;;;5034651;28;20230;-61
2022/11/23 07:44:14;;;;;;;3.00;2.80;;;13.90;49.80;;;;;;5038932;28;20203;-60
2022/11/23 07:46:39;;;;;;;3.93;3.13;;;13.70;50.60;;;;;;5048654;28;20849;-61
2022/11/23 07:49:05;;;;;;;4.90;3.80;;;13.60;50.90;;;;;;5045052;28;20200;-60
2022/11/23 07:51:31;;;;;;;3.67;3.33;;;13.70;50.00;;;;;;5047077;28;20272;-60
2022/11/23 07:53:56;;;;;;;8.30;4.43;;;13.70;50.80;;;;;;5040803;28;20244;-59
2022/11/23 07:56:22;;;;;;;7.30;3.70;;;13.70;50.60;;;;;;5047671;28;20714;-60
2022/11/23 07:58:48;;;;;;;7.10;3.50;;;13.60;50.70;;;;;;5037396;28;20196;-59
2022/11/23 08:01:16;;;;;;;7.10;3.00;;;13.40;50.90;;;;;;5046517;28;20247;-60
2022/11/23 08:03:46;;;;;;;9.37;3.80;;;13.20;51.60;;;;;;5047334;28;20682;-59
2022/11/23 08:06:12;;;;;;;5.60;3.43;;;12.70;52.30;;;;;;5044279;28;20446;-60
2022/11/23 08:08:38;;;;;;;5.13;3.43;;;12.30;53.20;;;;;;5045485;28;20431;-60
2022/11/23 08:11:05;;;;;;;3.70;3.40;;;12.20;54.20;;;;;;5046315;28;20454;-60
2022/11/23 08:13:31;;;;;;;5.70;3.77;;;11.90;54.60;;;;;;5048156;28;20448;-60
2022/11/23 08:15:56;;;;;;;4.80;4.17;;;11.60;55.50;;;;;;5048567;28;20919;-60
2022/11/23 08:18:23;;;;;;;5.30;3.57;;;11.60;55.80;;;;;;5048525;28;20446;-60
2022/11/23 08:20:49;;;;;;;5.50;4.40;;;11.70;55.60;;;;;;5046555;28;20691;-59
2022/11/23 08:23:14;;;;;;;4.50;3.30;;;12.00;55.30;;;;;;5048469;28;20451;-59
2022/11/23 08:25:40;;;;;;;7.33;3.37;;;12.20;54.80;;;;;;5043696;28;20204;-60
2022/11/23 08:28:06;;;;;;;5.03;3.30;;;12.20;55.30;;;;;;5047555;28;20196;-61
2022/11/23 08:30:33;;;;;;;6.50;3.37;;;12.20;54.50;;;;;;5047335;28;20267;-61
2022/11/23 08:33:01;;;;;;;4.53;3.00;;;12.30;54.60;;;;;;5048214;28;20189;-59
2022/11/23 08:35:26;;;;;;;4.20;3.20;;;12.40;54.30;;;;;;5046819;28;20471;-61
2022/11/23 08:37:52;;;;;;;4.47;3.17;;;12.20;54.80;;;;;;5042434;28;20798;-59
2022/11/23 08:40:18;;;;;;;5.10;2.90;;;12.30;54.80;;;;;;5042490;28;20204;-60
2022/11/23 08:42:43;;;;;;;4.67;3.27;;;12.20;54.60;;;;;;5049776;28;20327;-61
2022/11/23 08:45:09;;;;;;;7.20;3.00;;;12.20;55.20;;;;;;5045993;28;20927;-58
2022/11/23 08:47:35;;;;;;;5.40;2.70;;;12.30;55.80;;;;;;5041817;28;20188;-58
2022/11/23 08:50:00;;;;;;;4.97;2.93;;;12.30;54.60;;;;;;5040716;28;20450;-62
2022/11/23 08:52:26;;;;;;;4.53;2.60;;;12.30;55.00;;;;;;5047868;28;20197;-62
2022/11/23 08:54:52;;;;;;;8.33;2.30;;;12.40;54.80;;;;;;5044811;28;20201;-60
2022/11/23 08:57:17;;;;;;;4.57;2.90;;;12.30;54.10;;;;;;5044691;28;20742;-59
2022/11/23 08:59:43;;;;;;;3.03;2.33;;;12.20;54.90;;;;;;5045290;28;20326;-58
2022/11/23 09:02:12;;;;;;;6.70;3.27;;;12.50;54.70;;;;;;5047653;28;20667;-58
2022/11/23 09:04:39;;;;;;;5.37;2.90;;;12.80;54.30;;;;;;5028574;28;21037;-59
2022/11/23 09:07:05;;;;;;;7.30;2.90;;;12.90;53.30;;;;;;5045172;28;20446;-57
2022/11/23 09:09:31;;;;;;;5.13;2.93;;;13.00;53.10;;;;;;5043602;28;20942;-58
2022/11/23 09:11:56;;;;;;;9.03;2.93;;;12.90;52.70;;;;;;5046794;28;20253;-58
2022/11/23 09:14:22;;;;;;;6.67;2.87;;;12.80;56.30;;;;;;5046451;28;20203;-57
2022/11/23 09:16:48;;;;;;;7.13;2.63;;;12.90;53.90;;;;;;5045466;28;20211;-56
2022/11/23 09:19:14;;;;;;;3.60;2.67;;;13.10;54.10;;;;;;5038600;28;20213;-56
2022/11/23 09:21:41;;;;;;;4.47;3.00;;;13.30;53.20;;;;;;5046735;28;20239;-56
2022/11/23 09:24:09;;;;;;;4.93;2.73;;;13.40;52.70;;;;;;5044181;28;20192;-57
2022/11/23 09:26:36;;;;;;;3.13;2.83;;;13.70;52.10;;;;;;5049859;28;20914;-57
2022/11/23 09:29:03;;;;;;;5.83;2.70;;;14.10;51.80;;;;;;5043537;28;20500;-57
2022/11/23 09:31:28;;;;;;;9.70;2.50;;;14.40;51.00;;;;;;5042740;28;20439;-57
2022/11/23 09:33:54;;;;;;;2.60;2.03;;;14.60;49.80;;;;;;5048944;28;20419;-58
2022/11/23 09:36:21;;;;;;;2.73;1.87;;;14.90;49.20;;;;;;5044362;28;20192;-58
2022/11/23 09:38:47;;;;;;;6.43;2.83;;;14.80;47.70;;;;;;5048026;28;20442;-58
2022/11/23 09:41:28;;;;;;;3.27;2.20;;;15.00;48.40;;;;;;5049570;28;21067;-58
2022/11/23 09:44:12;;;;;;;4.60;2.23;;;15.10;47.00;;;;;;5052504;28;20454;-58
2022/11/23 09:47:24;;;;;;;4.10;2.33;;;14.90;47.50;;;;;;5050836;28;20458;-58
2022/11/23 09:50:02;;;;;;;3.70;2.23;;;14.90;48.10;;;;;;5048081;28;20454;-58
2022/11/23 09:52:29;;;;;;;4.13;2.43;;;15.10;47.90;;;;;;5052119;28;20967;-59
2022/11/23 09:54:59;;;;;;;2.93;2.30;;;15.30;47.50;;;;;;5052994;28;20485;-58
2022/11/23 09:57:28;;;;;;;4.07;2.33;;;15.70;47.40;;;;;;5052265;28;20532;-59
2022/11/23 10:00:00;;;;;;;3.90;2.03;;;15.80;46.20;;;;;;5049044;28;20442;-58
2022/11/23 10:02:30;;;;;;;3.03;2.37;;;15.80;46.10;;;;;;5050550;28;20509;-59
2022/11/23 10:04:58;;;;;;;4.43;2.80;;;16.00;46.40;;;;;;5049273;28;20795;-59
2022/11/23 10:07:40;;;;;;;6.27;2.80;;;16.30;46.40;;;;;;5052369;28;20482;-59
2022/11/23 10:10:13;;;;;;;8.20;2.77;;;16.40;45.60;;;;;;5051055;28;20489;-58
2022/11/23 10:13:21;;;;;;;3.10;2.00;;;16.20;45.60;;;;;;5050498;28;20451;-59
2022/11/23 10:16:08;;;;;;;4.40;2.47;;;16.00;45.70;;;;;;5005861;28;20926;-59
2022/11/23 10:18:56;;;;;;;3.50;2.20;;;16.40;45.60;;;;;;5052743;28;20427;-59
2022/11/23 10:21:45;;;;;;;3.07;2.53;;;16.70;44.70;;;;;;5047377;28;20494;-59
2022/11/23 10:24:18;;;;;;;3.70;2.20;;;16.90;44.30;;;;;;5042541;28;20503;-60
2022/11/23 10:26:47;;;;;;;3.07;1.80;;;17.00;42.50;;;;;;5051171;28;20447;-59
2022/11/23 10:29:36;;;;;;;3.77;2.27;;;16.90;41.40;;;;;;5050081;28;20831;-59
2022/11/23 10:32:05;;;;;;;3.53;2.20;;;16.80;43.00;;;;;;5053117;28;20484;-59
2022/11/23 10:34:45;;;;;;;4.03;1.97;;;16.90;43.20;;;;;;5050625;28;20466;-59
2022/11/23 10:37:13;;;;;;;3.00;2.13;;;16.70;43.10;;;;;;5050693;28;20470;-59
2022/11/23 10:39:38;;;;;;;7.00;2.30;;;17.00;43.00;;;;;;5049539;28;20439;-59
2022/11/23 10:42:19;;;;;;;3.27;2.20;;;17.10;42.70;;;;;;5053164;28;20490;-59
2022/11/23 10:44:48;;;;;;;3.93;2.07;;;17.20;42.90;;;;;;5051561;28;20192;-59
2022/11/23 10:47:38;;;;;;;9.23;2.27;;;17.50;42.70;;;;;;5051724;28;20447;-59
2022/11/23 10:50:20;;;;;;;6.23;2.40;;;17.80;42.20;;;;;;5050437;28;20455;-59
2022/11/23 10:53:22;;;;;;;6.23;2.40;;;17.90;41.30;;;;;;5050973;28;20508;-60
2022/11/23 10:55:53;;;;;;;2.97;2.13;;;18.10;40.50;;;;;;4950400;28;20538;-61
2022/11/23 10:58:43;;;;;;;5.60;2.20;;;18.20;41.00;;;;;;5038619;28;20458;-59
2022/11/23 11:01:14;;;;;;;3.83;1.67;;;18.50;40.10;;;;;;5049311;28;20479;-59
2022/11/23 11:03:40;;;;;;;4.03;1.80;;;18.70;38.50;;;;;;5048909;28;20439;-59
2022/11/23 11:06:05;;;;;;;4.67;1.77;;;18.70;38.10;;;;;;5050938;28;21236;-59
2022/11/23 11:08:35;;;;;;;3.00;1.70;;;18.70;37.10;;;;;;5050425;28;20200;-59
2022/11/23 11:11:05;;;;;;;5.00;1.43;;;18.60;37.30;;;;;;5051095;28;20234;-59
2022/11/23 11:13:40;;;;;;;3.10;2.13;;;18.60;37.10;;;;;;5051578;28;20475;-59
2022/11/23 11:16:21;;;;;;;3.17;1.90;;;18.60;37.40;;;;;;5051085;28;20457;-59
2022/11/23 11:18:47;;;;;;;2.10;1.70;;;18.50;37.70;;;;;;5048619;28;20439;-59
2022/11/23 11:21:33;;;;;;;3.10;1.70;;;18.30;37.80;;;;;;5050659;28;21047;-60
2022/11/23 11:24:05;;;;;;;3.40;1.73;;;18.20;38.30;;;;;;5049546;28;20197;-60
2022/11/23 11:26:33;;;;;;;6.17;2.40;;;18.20;38.70;;;;;;5051203;28;20443;-59
2022/11/23 11:29:01;;;;;;;2.43;1.57;;;18.10;38.60;;;;;;5050605;28;20512;-59
2022/11/23 11:31:50;;;;;;;3.47;2.10;;;18.10;38.30;;;;;;5050715;28;20939;-59
2022/11/23 11:34:30;;;;;;;2.97;2.10;;;18.10;39.30;;;;;;5039106;28;20443;-59
2022/11/23 11:37:16;;;;;;;2.17;1.97;;;18.20;39.30;;;;;;5042252;28;20450;-60
2022/11/23 11:40:03;;;;;;;4.13;2.33;;;18.10;39.20;;;;;;5041098;28;20454;-57
2022/11/23 11:42:43;;;;;;;4.97;2.30;;;18.00;39.10;;;;;;5046565;28;20486;-57
2022/11/23 11:45:44;;;;;;;8.87;2.40;;;17.90;40.00;;;;;;5050097;28;20934;-57
2022/11/23 11:48:13;;;;;;;5.03;2.47;;;18.00;40.10;;;;;;5034038;28;20446;-57
2022/11/23 11:50:56;;;;;;;3.33;1.90;;;18.00;39.40;;;;;;5048272;28;20443;-60
2022/11/23 11:53:27;;;;;;;5.63;1.80;;;17.80;38.40;;;;;;5051318;28;20435;-60
2022/11/23 11:56:13;;;;;;;3.60;1.80;;;17.80;38.40;;;;;;5047491;28;20446;-59
2022/11/23 11:58:47;;;;;;;2.67;1.80;;;17.90;38.30;;;;;;5006251;28;20442;-59
2022/11/23 12:01:32;;;;;;;1.90;1.60;;;18.00;38.20;;;;;;5039915;28;20470;-59
2022/11/23 12:04:05;;;;;;;6.90;1.70;;;18.00;38.00;;;;;;5045067;28;20455;-59
2022/11/23 12:06:44;;;;;;;3.13;1.83;;;18.00;37.30;;;;;;5044781;28;20447;-59
2022/11/23 12:09:30;;;;;;;1.70;1.53;;;18.00;36.90;;;;;;5046286;28;20439;-59
2022/11/23 12:11:56;;;;;;;2.83;1.90;;;17.90;37.00;;;;;;5047947;28;20447;-59
2022/11/23 12:14:23;;;;;;;2.50;1.70;;;17.90;37.50;;;;;;5048150;28;20493;-59
2022/11/23 12:17:09;;;;;;;3.43;1.70;;;17.60;37.70;;;;;;5048493;28;20443;-59
2022/11/23 12:20:10;;;;;;;3.53;1.70;;;17.30;37.40;;;;;;5048288;28;20877;-59
2022/11/23 12:22:36;;;;;;;3.17;1.83;;;17.10;38.60;;;;;;5042390;28;20868;-59
2022/11/23 12:25:19;;;;;;;5.17;2.23;;;17.00;38.80;;;;;;5048093;28;20446;-58
2022/11/23 12:28:08;;;;;;;2.13;1.93;;;17.20;38.70;;;;;;5047761;28;20199;-58
2022/11/23 12:30:51;;;;;;;4.20;2.73;;;17.40;38.90;;;;;;5046503;28;20804;-58
2022/11/23 12:33:46;;;;;;;2.07;1.60;;;17.70;38.50;;;;;;5047249;28;20952;-58
2022/11/23 12:36:43;;;;;;;4.20;2.37;;;17.90;38.30;;;;;;5046819;28;20447;-58
2022/11/23 12:39:19;;;;;;;2.90;2.13;;;18.00;37.70;;;;;;5048454;28;20451;-58
2022/11/23 12:42:03;;;;;;;3.43;2.00;;;18.20;37.40;;;;;;5049868;28;20581;-58
2022/11/23 12:44:44;;;;;;;1.87;1.50;;;18.30;36.70;;;;;;5050214;28;20439;-58
2022/11/23 12:47:37;;;;;;;4.00;1.70;;;18.30;36.70;;;;;;5043954;28;20899;-58
2022/11/23 12:50:34;;;;;;;3.77;1.90;;;18.10;35.70;;;;;;5041549;28;21076;-58
2022/11/23 12:53:24;;;;;;;1.73;1.13;;;17.60;37.00;;;;;;5036616;28;20458;-58
2022/11/23 12:56:05;;;;;;;1.60;1.40;;;17.50;36.70;;;;;;5039600;28;22068;-58
2022/11/23 12:58:33;;;;;;;2.10;1.70;;;17.30;36.80;;;;;;5039093;28;20566;-58
2022/11/23 13:01:16;;;;;;;4.97;1.33;;;17.40;37.00;;;;;;5046701;28;20520;-58